sensor_id;sensor_type;location;lat;lon;timestamp;P1;durP1;ratioP1;P2;durP2;ratioP2
14994;SDS011;7593;49.006;8.372;2023-06-10T00:00:02;6.60;;;5.30;;
14994;SDS011;7593;49.006;8.372;2023-06-10T00:02:30;6.35;;;5.75;;
14994;SDS011;7593;49.006;8.372;2023-06-10T00:04:57;6.78;;;6.10;;
14994;SDS011;7593;49.006;8.372;2023-06-10T00:07:24;8.98;;;5.70;;
14994;SDS011;7593;49.006;8.372;2023-06-10T00:09:52;7.93;;;6.05;;
14994;SDS011;7593;49.006;8.372;2023-06-10T00:12:20;6.18;;;5.68;;
14994;SDS011;7593;49.006;8.372;2023-06-10T00:14:47;6.90;;;6.20;;
14994;SDS011;7593;49.006;8.372;2023-06-10T00:17:15;7.10;;;5.28;;
14994;SDS011;7593;49.006;8.372;2023-06-10T00:19:42;6.38;;;5.88;;
14994;SDS011;7593;49.006;8.372;2023-06-10T00:22:12;6.55;;;5.60;;
14994;SDS011;7593;49.006;8.372;2023-06-10T00:24:39;6.85;;;6.15;;
14994;SDS011;7593;49.006;8.372;2023-06-10T00:27:08;6.75;;;6.05;;
14994;SDS011;7593;49.006;8.372;2023-06-10T00:29:35;7.03;;;6.43;;
14994;SDS011;7593;49.006;8.372;2023-06-10T00:32:02;6.65;;;5.93;;
14994;SDS011;7593;49.006;8.372;2023-06-10T00:34:29;7.03;;;6.40;;
14994;SDS011;7593;49.006;8.372;2023-06-10T00:36:57;7.15;;;6.38;;
14994;SDS011;7593;49.006;8.372;2023-06-10T00:39:23;8.65;;;6.22;;
14994;SDS011;7593;49.006;8.372;2023-06-10T00:41:50;7.63;;;5.85;;
14994;SDS011;7593;49.006;8.372;2023-06-10T00:44:19;6.78;;;5.93;;
14994;SDS011;7593;49.006;8.372;2023-06-10T00:46:45;6.85;;;6.15;;
14994;SDS011;7593;49.006;8.372;2023-06-10T00:49:12;7.40;;;6.32;;
14994;SDS011;7593;49.006;8.372;2023-06-10T00:51:39;7.78;;;6.40;;
14994;SDS011;7593;49.006;8.372;2023-06-10T00:54:06;8.15;;;6.43;;
14994;SDS011;7593;49.006;8.372;2023-06-10T00:56:33;7.50;;;6.15;;
14994;SDS011;7593;49.006;8.372;2023-06-10T00:59:01;7.47;;;6.65;;
14994;SDS011;7593;49.006;8.372;2023-06-10T01:01:29;7.20;;;6.20;;
14994;SDS011;7593;49.006;8.372;2023-06-10T01:03:57;6.72;;;6.10;;
14994;SDS011;7593;49.006;8.372;2023-06-10T01:06:25;8.80;;;6.32;;
14994;SDS011;7593;49.006;8.372;2023-06-10T01:09:01;6.88;;;6.28;;
14994;SDS011;7593;49.006;8.372;2023-06-10T01:11:34;7.03;;;6.32;;
14994;SDS011;7593;49.006;8.372;2023-06-10T01:14:05;6.43;;;5.93;;
14994;SDS011;7593;49.006;8.372;2023-06-10T01:16:35;7.70;;;6.88;;
14994;SDS011;7593;49.006;8.372;2023-06-10T01:19:05;7.90;;;6.53;;
14994;SDS011;7593;49.006;8.372;2023-06-10T01:21:34;6.78;;;6.15;;
14994;SDS011;7593;49.006;8.372;2023-06-10T01:24:01;6.75;;;5.90;;
14994;SDS011;7593;49.006;8.372;2023-06-10T01:26:29;7.15;;;6.45;;
14994;SDS011;7593;49.006;8.372;2023-06-10T01:28:59;7.10;;;6.50;;
14994;SDS011;7593;49.006;8.372;2023-06-10T01:31:31;7.28;;;6.57;;
14994;SDS011;7593;49.006;8.372;2023-06-10T01:34:06;7.22;;;6.53;;
14994;SDS011;7593;49.006;8.372;2023-06-10T01:36:37;8.98;;;6.55;;
14994;SDS011;7593;49.006;8.372;2023-06-10T01:39:06;6.72;;;6.10;;
14994;SDS011;7593;49.006;8.372;2023-06-10T01:41:34;7.05;;;6.35;;
14994;SDS011;7593;49.006;8.372;2023-06-10T01:44:02;6.53;;;6.03;;
14994;SDS011;7593;49.006;8.372;2023-06-10T01:46:29;7.50;;;6.18;;
14994;SDS011;7593;49.006;8.372;2023-06-10T01:48:55;7.38;;;6.63;;
14994;SDS011;7593;49.006;8.372;2023-06-10T01:51:22;7.38;;;6.68;;
14994;SDS011;7593;49.006;8.372;2023-06-10T01:53:50;8.00;;;6.30;;
14994;SDS011;7593;49.006;8.372;2023-06-10T01:56:17;6.90;;;6.20;;
14994;SDS011;7593;49.006;8.372;2023-06-10T01:58:45;8.18;;;6.13;;
14994;SDS011;7593;49.006;8.372;2023-06-10T02:01:11;7.55;;;6.45;;
14994;SDS011;7593;49.006;8.372;2023-06-10T02:03:39;6.50;;;5.90;;
14994;SDS011;7593;49.006;8.372;2023-06-10T02:06:06;7.40;;;6.45;;
14994;SDS011;7593;49.006;8.372;2023-06-10T02:08:32;8.13;;;6.22;;
14994;SDS011;7593;49.006;8.372;2023-06-10T02:11:01;7.00;;;6.30;;
14994;SDS011;7593;49.006;8.372;2023-06-10T02:13:27;7.30;;;5.93;;
14994;SDS011;7593;49.006;8.372;2023-06-10T02:15:54;7.00;;;6.20;;
14994;SDS011;7593;49.006;8.372;2023-06-10T02:18:21;7.30;;;6.32;;
14994;SDS011;7593;49.006;8.372;2023-06-10T02:20:48;8.63;;;6.40;;
14994;SDS011;7593;49.006;8.372;2023-06-10T02:23:14;7.00;;;6.40;;
14994;SDS011;7593;49.006;8.372;2023-06-10T02:25:41;7.22;;;6.53;;
14994;SDS011;7593;49.006;8.372;2023-06-10T02:28:09;7.25;;;6.50;;
14994;SDS011;7593;49.006;8.372;2023-06-10T02:30:38;7.10;;;6.40;;
14994;SDS011;7593;49.006;8.372;2023-06-10T02:33:06;7.47;;;6.82;;
14994;SDS011;7593;49.006;8.372;2023-06-10T02:35:35;7.75;;;6.95;;
14994;SDS011;7593;49.006;8.372;2023-06-10T02:38:02;7.78;;;7.15;;
14994;SDS011;7593;49.006;8.372;2023-06-10T02:40:29;8.27;;;7.00;;
14994;SDS011;7593;49.006;8.372;2023-06-10T02:42:55;7.88;;;6.88;;
14994;SDS011;7593;49.006;8.372;2023-06-10T02:45:24;8.15;;;7.13;;
14994;SDS011;7593;49.006;8.372;2023-06-10T02:47:51;7.95;;;7.25;;
14994;SDS011;7593;49.006;8.372;2023-06-10T02:50:18;8.90;;;8.00;;
14994;SDS011;7593;49.006;8.372;2023-06-10T02:52:45;8.57;;;7.68;;
14994;SDS011;7593;49.006;8.372;2023-06-10T02:55:12;8.75;;;7.97;;
14994;SDS011;7593;49.006;8.372;2023-06-10T02:57:38;9.02;;;6.80;;
14994;SDS011;7593;49.006;8.372;2023-06-10T03:00:06;8.23;;;7.40;;
14994;SDS011;7593;49.006;8.372;2023-06-10T03:02:37;8.18;;;7.45;;
14994;SDS011;7593;49.006;8.372;2023-06-10T03:05:04;7.90;;;7.20;;
14994;SDS011;7593;49.006;8.372;2023-06-10T03:07:35;8.07;;;7.32;;
14994;SDS011;7593;49.006;8.372;2023-06-10T03:10:02;8.52;;;7.68;;
14994;SDS011;7593;49.006;8.372;2023-06-10T03:12:30;10.73;;;7.32;;
14994;SDS011;7593;49.006;8.372;2023-06-10T03:14:56;7.97;;;7.18;;
14994;SDS011;7593;49.006;8.372;2023-06-10T03:17:23;11.20;;;7.45;;
14994;SDS011;7593;49.006;8.372;2023-06-10T03:19:51;7.95;;;7.15;;
14994;SDS011;7593;49.006;8.372;2023-06-10T03:22:18;8.02;;;7.30;;
14994;SDS011;7593;49.006;8.372;2023-06-10T03:24:45;8.35;;;7.18;;
14994;SDS011;7593;49.006;8.372;2023-06-10T03:27:15;8.25;;;7.47;;
14994;SDS011;7593;49.006;8.372;2023-06-10T03:29:42;9.02;;;7.90;;
14994;SDS011;7593;49.006;8.372;2023-06-10T03:32:08;8.23;;;7.15;;
14994;SDS011;7593;49.006;8.372;2023-06-10T03:34:35;8.13;;;7.03;;
14994;SDS011;7593;49.006;8.372;2023-06-10T03:37:03;7.90;;;7.28;;
14994;SDS011;7593;49.006;8.372;2023-06-10T03:39:31;8.23;;;7.15;;
14994;SDS011;7593;49.006;8.372;2023-06-10T03:41:58;8.32;;;6.88;;
14994;SDS011;7593;49.006;8.372;2023-06-10T03:44:25;7.90;;;7.10;;
14994;SDS011;7593;49.006;8.372;2023-06-10T03:46:52;9.13;;;6.88;;
14994;SDS011;7593;49.006;8.372;2023-06-10T03:49:19;7.95;;;7.25;;
14994;SDS011;7593;49.006;8.372;2023-06-10T03:51:46;7.88;;;7.07;;
14994;SDS011;7593;49.006;8.372;2023-06-10T03:54:14;8.77;;;6.85;;
14994;SDS011;7593;49.006;8.372;2023-06-10T03:56:41;7.25;;;6.55;;
14994;SDS011;7593;49.006;8.372;2023-06-10T03:59:08;7.70;;;7.00;;
14994;SDS011;7593;49.006;8.372;2023-06-10T04:01:35;7.78;;;6.95;;
14994;SDS011;7593;49.006;8.372;2023-06-10T04:04:02;7.22;;;6.63;;
14994;SDS011;7593;49.006;8.372;2023-06-10T04:06:29;7.32;;;6.72;;
14994;SDS011;7593;49.006;8.372;2023-06-10T04:08:56;7.97;;;7.18;;
14994;SDS011;7593;49.006;8.372;2023-06-10T04:11:25;6.85;;;6.25;;
14994;SDS011;7593;49.006;8.372;2023-06-10T04:13:51;7.75;;;6.70;;
14994;SDS011;7593;49.006;8.372;2023-06-10T04:16:18;7.35;;;6.50;;
14994;SDS011;7593;49.006;8.372;2023-06-10T04:18:46;6.93;;;6.32;;
14994;SDS011;7593;49.006;8.372;2023-06-10T04:21:13;8.55;;;7.28;;
14994;SDS011;7593;49.006;8.372;2023-06-10T04:23:39;7.10;;;6.50;;
14994;SDS011;7593;49.006;8.372;2023-06-10T04:26:07;6.82;;;6.30;;
14994;SDS011;7593;49.006;8.372;2023-06-10T04:28:35;7.40;;;6.45;;
14994;SDS011;7593;49.006;8.372;2023-06-10T04:31:02;9.48;;;6.60;;
14994;SDS011;7593;49.006;8.372;2023-06-10T04:33:29;7.28;;;6.57;;
14994;SDS011;7593;49.006;8.372;2023-06-10T04:35:56;6.93;;;6.32;;
14994;SDS011;7593;49.006;8.372;2023-06-10T04:38:23;6.80;;;6.20;;
14994;SDS011;7593;49.006;8.372;2023-06-10T04:40:50;6.90;;;6.30;;
14994;SDS011;7593;49.006;8.372;2023-06-10T04:43:16;9.07;;;7.00;;
14994;SDS011;7593;49.006;8.372;2023-06-10T04:45:45;6.85;;;5.93;;
14994;SDS011;7593;49.006;8.372;2023-06-10T04:48:12;6.93;;;6.32;;
14994;SDS011;7593;49.006;8.372;2023-06-10T04:50:39;7.47;;;6.72;;
14994;SDS011;7593;49.006;8.372;2023-06-10T04:53:05;8.50;;;7.18;;
14994;SDS011;7593;49.006;8.372;2023-06-10T04:55:33;9.05;;;6.30;;
14994;SDS011;7593;49.006;8.372;2023-06-10T04:58:01;7.07;;;6.38;;
14994;SDS011;7593;49.006;8.372;2023-06-10T05:00:28;7.03;;;6.43;;
14994;SDS011;7593;49.006;8.372;2023-06-10T05:02:56;6.90;;;6.40;;
14994;SDS011;7593;49.006;8.372;2023-06-10T05:05:23;7.30;;;6.60;;
14994;SDS011;7593;49.006;8.372;2023-06-10T05:07:50;7.70;;;7.00;;
14994;SDS011;7593;49.006;8.372;2023-06-10T05:10:16;7.85;;;6.85;;
14994;SDS011;7593;49.006;8.372;2023-06-10T05:12:43;6.97;;;6.35;;
14994;SDS011;7593;49.006;8.372;2023-06-10T05:15:10;6.72;;;6.13;;
14994;SDS011;7593;49.006;8.372;2023-06-10T05:17:37;6.93;;;6.22;;
14994;SDS011;7593;49.006;8.372;2023-06-10T05:20:05;6.65;;;6.07;;
14994;SDS011;7593;49.006;8.372;2023-06-10T05:22:33;6.93;;;6.30;;
14994;SDS011;7593;49.006;8.372;2023-06-10T05:25:00;6.72;;;6.13;;
14994;SDS011;7593;49.006;8.372;2023-06-10T05:27:27;6.68;;;6.05;;
14994;SDS011;7593;49.006;8.372;2023-06-10T05:29:54;8.57;;;5.55;;
14994;SDS011;7593;49.006;8.372;2023-06-10T05:32:21;6.20;;;5.70;;
14994;SDS011;7593;49.006;8.372;2023-06-10T05:34:48;7.80;;;5.72;;
14994;SDS011;7593;49.006;8.372;2023-06-10T05:37:16;6.28;;;5.78;;
14994;SDS011;7593;49.006;8.372;2023-06-10T05:39:43;6.30;;;5.72;;
14994;SDS011;7593;49.006;8.372;2023-06-10T05:42:10;5.85;;;5.40;;
14994;SDS011;7593;49.006;8.372;2023-06-10T05:44:36;6.07;;;5.57;;
14994;SDS011;7593;49.006;8.372;2023-06-10T05:47:03;5.80;;;5.25;;
14994;SDS011;7593;49.006;8.372;2023-06-10T05:49:31;6.35;;;5.75;;
14994;SDS011;7593;49.006;8.372;2023-06-10T05:51:57;6.68;;;6.05;;
14994;SDS011;7593;49.006;8.372;2023-06-10T05:54:26;7.45;;;5.55;;
14994;SDS011;7593;49.006;8.372;2023-06-10T05:56:53;5.50;;;5.10;;
14994;SDS011;7593;49.006;8.372;2023-06-10T05:59:19;5.53;;;4.82;;
14994;SDS011;7593;49.006;8.372;2023-06-10T06:01:47;5.55;;;5.05;;
14994;SDS011;7593;49.006;8.372;2023-06-10T06:04:15;5.55;;;5.05;;
14994;SDS011;7593;49.006;8.372;2023-06-10T06:06:42;5.90;;;5.20;;
14994;SDS011;7593;49.006;8.372;2023-06-10T06:09:08;5.50;;;5.03;;
14994;SDS011;7593;49.006;8.372;2023-06-10T06:11:37;5.65;;;5.18;;
14994;SDS011;7593;49.006;8.372;2023-06-10T06:14:03;5.80;;;5.28;;
14994;SDS011;7593;49.006;8.372;2023-06-10T06:16:30;5.60;;;5.20;;
14994;SDS011;7593;49.006;8.372;2023-06-10T06:18:57;5.90;;;5.30;;
14994;SDS011;7593;49.006;8.372;2023-06-10T06:21:23;5.25;;;4.70;;
14994;SDS011;7593;49.006;8.372;2023-06-10T06:23:50;5.28;;;4.80;;
14994;SDS011;7593;49.006;8.372;2023-06-10T06:26:17;5.32;;;4.82;;
14994;SDS011;7593;49.006;8.372;2023-06-10T06:28:45;6.68;;;5.00;;
14994;SDS011;7593;49.006;8.372;2023-06-10T06:31:12;5.60;;;4.57;;
14994;SDS011;7593;49.006;8.372;2023-06-10T06:33:39;4.78;;;4.28;;
14994;SDS011;7593;49.006;8.372;2023-06-10T06:36:06;4.88;;;4.47;;
14994;SDS011;7593;49.006;8.372;2023-06-10T06:38:32;4.85;;;4.32;;
14994;SDS011;7593;49.006;8.372;2023-06-10T06:40:59;5.10;;;4.60;;
14994;SDS011;7593;49.006;8.372;2023-06-10T06:43:28;4.60;;;4.20;;
14994;SDS011;7593;49.006;8.372;2023-06-10T06:45:57;5.38;;;4.68;;
14994;SDS011;7593;49.006;8.372;2023-06-10T06:48:24;6.07;;;4.25;;
14994;SDS011;7593;49.006;8.372;2023-06-10T06:50:51;4.80;;;4.40;;
14994;SDS011;7593;49.006;8.372;2023-06-10T06:53:17;4.72;;;4.22;;
14994;SDS011;7593;49.006;8.372;2023-06-10T06:55:44;5.47;;;4.28;;
14994;SDS011;7593;49.006;8.372;2023-06-10T06:58:11;4.82;;;4.43;;
14994;SDS011;7593;49.006;8.372;2023-06-10T07:00:37;4.47;;;4.18;;
14994;SDS011;7593;49.006;8.372;2023-06-10T07:03:06;5.20;;;4.45;;
14994;SDS011;7593;49.006;8.372;2023-06-10T07:05:32;5.22;;;4.10;;
14994;SDS011;7593;49.006;8.372;2023-06-10T07:07:59;5.25;;;4.25;;
14994;SDS011;7593;49.006;8.372;2023-06-10T07:10:26;4.43;;;4.03;;
14994;SDS011;7593;49.006;8.372;2023-06-10T07:12:54;6.65;;;4.30;;
14994;SDS011;7593;49.006;8.372;2023-06-10T07:15:21;4.20;;;3.80;;
14994;SDS011;7593;49.006;8.372;2023-06-10T07:17:47;4.90;;;4.07;;
14994;SDS011;7593;49.006;8.372;2023-06-10T07:20:16;6.25;;;4.22;;
14994;SDS011;7593;49.006;8.372;2023-06-10T07:22:43;4.22;;;3.92;;
14994;SDS011;7593;49.006;8.372;2023-06-10T07:25:09;4.53;;;4.13;;
14994;SDS011;7593;49.006;8.372;2023-06-10T07:27:36;4.18;;;3.88;;
14994;SDS011;7593;49.006;8.372;2023-06-10T07:30:03;4.75;;;4.10;;
14994;SDS011;7593;49.006;8.372;2023-06-10T07:32:33;5.32;;;4.80;;
14994;SDS011;7593;49.006;8.372;2023-06-10T07:34:59;4.80;;;4.40;;
14994;SDS011;7593;49.006;8.372;2023-06-10T07:37:27;4.82;;;4.32;;
14994;SDS011;7593;49.006;8.372;2023-06-10T07:39:54;4.93;;;4.10;;
14994;SDS011;7593;49.006;8.372;2023-06-10T07:42:22;4.65;;;4.25;;
14994;SDS011;7593;49.006;8.372;2023-06-10T07:44:49;4.40;;;4.10;;
14994;SDS011;7593;49.006;8.372;2023-06-10T07:47:15;5.22;;;4.82;;
14994;SDS011;7593;49.006;8.372;2023-06-10T07:49:42;4.88;;;4.35;;
14994;SDS011;7593;49.006;8.372;2023-06-10T07:52:09;4.30;;;3.95;;
14994;SDS011;7593;49.006;8.372;2023-06-10T07:54:37;4.25;;;3.95;;
14994;SDS011;7593;49.006;8.372;2023-06-10T07:57:04;5.40;;;4.05;;
14994;SDS011;7593;49.006;8.372;2023-06-10T07:59:32;5.45;;;4.10;;
14994;SDS011;7593;49.006;8.372;2023-06-10T08:01:58;4.25;;;3.92;;
14994;SDS011;7593;49.006;8.372;2023-06-10T08:04:25;4.50;;;4.10;;
14994;SDS011;7593;49.006;8.372;2023-06-10T08:06:52;4.88;;;3.75;;
14994;SDS011;7593;49.006;8.372;2023-06-10T08:09:19;4.10;;;3.80;;
14994;SDS011;7593;49.006;8.372;2023-06-10T08:11:47;4.20;;;3.80;;
14994;SDS011;7593;49.006;8.372;2023-06-10T08:14:15;4.00;;;3.70;;
14994;SDS011;7593;49.006;8.372;2023-06-10T08:16:43;3.80;;;3.50;;
14994;SDS011;7593;49.006;8.372;2023-06-10T08:19:10;3.97;;;3.40;;
14994;SDS011;7593;49.006;8.372;2023-06-10T08:21:37;4.30;;;3.90;;
14994;SDS011;7593;49.006;8.372;2023-06-10T08:24:05;4.45;;;3.70;;
14994;SDS011;7593;49.006;8.372;2023-06-10T08:26:32;3.97;;;3.67;;
14994;SDS011;7593;49.006;8.372;2023-06-10T08:29:00;4.00;;;3.70;;
14994;SDS011;7593;49.006;8.372;2023-06-10T08:31:27;4.13;;;3.50;;
14994;SDS011;7593;49.006;8.372;2023-06-10T08:33:53;3.70;;;3.15;;
14994;SDS011;7593;49.006;8.372;2023-06-10T08:36:20;3.92;;;3.42;;
14994;SDS011;7593;49.006;8.372;2023-06-10T08:38:47;3.60;;;3.30;;
14994;SDS011;7593;49.006;8.372;2023-06-10T08:41:14;4.78;;;3.35;;
14994;SDS011;7593;49.006;8.372;2023-06-10T08:43:43;3.70;;;3.40;;
14994;SDS011;7593;49.006;8.372;2023-06-10T08:46:14;4.07;;;3.67;;
14994;SDS011;7593;49.006;8.372;2023-06-10T08:48:42;3.40;;;3.10;;
14994;SDS011;7593;49.006;8.372;2023-06-10T08:51:10;3.90;;;3.60;;
14994;SDS011;7593;49.006;8.372;2023-06-10T08:53:38;4.10;;;3.80;;
14994;SDS011;7593;49.006;8.372;2023-06-10T08:56:14;3.75;;;3.45;;
14994;SDS011;7593;49.006;8.372;2023-06-10T08:58:42;3.47;;;3.17;;
14994;SDS011;7593;49.006;8.372;2023-06-10T09:01:09;3.88;;;3.55;;
14994;SDS011;7593;49.006;8.372;2023-06-10T09:03:39;3.65;;;3.35;;
14994;SDS011;7593;49.006;8.372;2023-06-10T09:06:07;3.53;;;3.20;;
14994;SDS011;7593;49.006;8.372;2023-06-10T09:08:35;3.63;;;3.33;;
14994;SDS011;7593;49.006;8.372;2023-06-10T09:11:01;4.38;;;3.50;;
14994;SDS011;7593;49.006;8.372;2023-06-10T09:13:28;3.78;;;3.47;;
14994;SDS011;7593;49.006;8.372;2023-06-10T09:15:55;3.97;;;3.30;;
14994;SDS011;7593;49.006;8.372;2023-06-10T09:18:25;3.95;;;3.42;;
14994;SDS011;7593;49.006;8.372;2023-06-10T09:20:54;4.75;;;4.10;;
14994;SDS011;7593;49.006;8.372;2023-06-10T09:23:21;4.15;;;3.80;;
14994;SDS011;7593;49.006;8.372;2023-06-10T09:25:53;3.70;;;3.40;;
14994;SDS011;7593;49.006;8.372;2023-06-10T09:28:23;4.50;;;4.20;;
14994;SDS011;7593;49.006;8.372;2023-06-10T09:30:49;3.83;;;3.53;;
14994;SDS011;7593;49.006;8.372;2023-06-10T09:33:27;4.70;;;3.75;;
14994;SDS011;7593;49.006;8.372;2023-06-10T09:35:55;4.07;;;3.78;;
14994;SDS011;7593;49.006;8.372;2023-06-10T09:38:29;3.72;;;3.42;;
14994;SDS011;7593;49.006;8.372;2023-06-10T09:40:56;4.32;;;3.60;;
14994;SDS011;7593;49.006;8.372;2023-06-10T09:43:23;4.05;;;3.65;;
14994;SDS011;7593;49.006;8.372;2023-06-10T09:46:05;4.07;;;3.63;;
14994;SDS011;7593;49.006;8.372;2023-06-10T09:48:34;3.85;;;3.55;;
14994;SDS011;7593;49.006;8.372;2023-06-10T09:51:03;7.55;;;3.92;;
14994;SDS011;7593;49.006;8.372;2023-06-10T09:53:35;4.30;;;3.90;;
14994;SDS011;7593;49.006;8.372;2023-06-10T09:56:01;4.20;;;3.90;;
14994;SDS011;7593;49.006;8.372;2023-06-10T09:58:35;3.95;;;3.63;;
14994;SDS011;7593;49.006;8.372;2023-06-10T10:01:04;4.25;;;3.50;;
14994;SDS011;7593;49.006;8.372;2023-06-10T10:03:32;4.30;;;3.90;;
14994;SDS011;7593;49.006;8.372;2023-06-10T10:05:59;4.68;;;3.92;;
14994;SDS011;7593;49.006;8.372;2023-06-10T10:08:27;7.22;;;4.05;;
14994;SDS011;7593;49.006;8.372;2023-06-10T10:10:55;4.88;;;3.97;;
14994;SDS011;7593;49.006;8.372;2023-06-10T10:13:24;4.40;;;4.00;;
14994;SDS011;7593;49.006;8.372;2023-06-10T10:15:52;4.13;;;3.58;;
14994;SDS011;7593;49.006;8.372;2023-06-10T10:18:18;4.13;;;3.72;;
14994;SDS011;7593;49.006;8.372;2023-06-10T10:20:53;3.80;;;3.50;;
14994;SDS011;7593;49.006;8.372;2023-06-10T10:23:21;4.03;;;3.72;;
14994;SDS011;7593;49.006;8.372;2023-06-10T10:25:57;4.10;;;3.70;;
14994;SDS011;7593;49.006;8.372;2023-06-10T10:28:28;3.92;;;3.60;;
14994;SDS011;7593;49.006;8.372;2023-06-10T10:31:02;4.07;;;3.30;;
14994;SDS011;7593;49.006;8.372;2023-06-10T10:33:36;3.90;;;3.50;;
14994;SDS011;7593;49.006;8.372;2023-06-10T10:36:08;4.00;;;3.60;;
14994;SDS011;7593;49.006;8.372;2023-06-10T10:38:35;4.43;;;3.70;;
14994;SDS011;7593;49.006;8.372;2023-06-10T10:41:03;4.13;;;3.53;;
14994;SDS011;7593;49.006;8.372;2023-06-10T10:43:31;4.28;;;3.47;;
14994;SDS011;7593;49.006;8.372;2023-06-10T10:45:59;6.35;;;3.65;;
14994;SDS011;7593;49.006;8.372;2023-06-10T10:48:27;4.35;;;3.70;;
14994;SDS011;7593;49.006;8.372;2023-06-10T10:51:00;3.70;;;3.40;;
14994;SDS011;7593;49.006;8.372;2023-06-10T10:53:27;3.75;;;3.40;;
14994;SDS011;7593;49.006;8.372;2023-06-10T10:55:58;4.32;;;3.85;;
14994;SDS011;7593;49.006;8.372;2023-06-10T10:58:26;4.75;;;3.30;;
14994;SDS011;7593;49.006;8.372;2023-06-10T11:00:53;3.38;;;3.08;;
14994;SDS011;7593;49.006;8.372;2023-06-10T11:03:20;4.78;;;3.80;;
14994;SDS011;7593;49.006;8.372;2023-06-10T11:05:48;3.50;;;3.20;;
14994;SDS011;7593;49.006;8.372;2023-06-10T11:08:15;4.90;;;3.55;;
14994;SDS011;7593;49.006;8.372;2023-06-10T11:11:17;4.32;;;3.92;;
14994;SDS011;7593;49.006;8.372;2023-06-10T11:13:57;4.95;;;3.10;;
14994;SDS011;7593;49.006;8.372;2023-06-10T11:16:26;4.25;;;3.60;;
14994;SDS011;7593;49.006;8.372;2023-06-10T11:18:54;3.45;;;3.13;;
14994;SDS011;7593;49.006;8.372;2023-06-10T11:21:22;4.70;;;3.08;;
14994;SDS011;7593;49.006;8.372;2023-06-10T11:23:50;3.70;;;3.15;;
14994;SDS011;7593;49.006;8.372;2023-06-10T11:26:29;4.18;;;3.00;;
14994;SDS011;7593;49.006;8.372;2023-06-10T11:29:00;3.30;;;3.10;;
14994;SDS011;7593;49.006;8.372;2023-06-10T11:31:29;3.30;;;3.00;;
14994;SDS011;7593;49.006;8.372;2023-06-10T11:33:57;4.07;;;3.10;;
14994;SDS011;7593;49.006;8.372;2023-06-10T11:36:25;3.15;;;2.95;;
14994;SDS011;7593;49.006;8.372;2023-06-10T11:38:54;5.25;;;2.97;;
14994;SDS011;7593;49.006;8.372;2023-06-10T11:41:24;3.20;;;3.00;;
14994;SDS011;7593;49.006;8.372;2023-06-10T11:43:52;3.47;;;2.80;;
14994;SDS011;7593;49.006;8.372;2023-06-10T11:46:22;3.78;;;3.00;;
14994;SDS011;7593;49.006;8.372;2023-06-10T11:48:52;5.00;;;3.00;;
14994;SDS011;7593;49.006;8.372;2023-06-10T11:51:19;3.28;;;2.97;;
14994;SDS011;7593;49.006;8.372;2023-06-10T11:53:46;3.55;;;3.10;;
14994;SDS011;7593;49.006;8.372;2023-06-10T11:56:18;3.28;;;2.97;;
14994;SDS011;7593;49.006;8.372;2023-06-10T11:58:51;3.40;;;3.05;;
14994;SDS011;7593;49.006;8.372;2023-06-10T12:01:20;3.95;;;3.00;;
14994;SDS011;7593;49.006;8.372;2023-06-10T12:03:47;2.80;;;2.60;;
14994;SDS011;7593;49.006;8.372;2023-06-10T12:06:22;3.97;;;2.97;;
14994;SDS011;7593;49.006;8.372;2023-06-10T12:08:49;3.80;;;2.90;;
14994;SDS011;7593;49.006;8.372;2023-06-10T12:11:15;3.67;;;2.90;;
14994;SDS011;7593;49.006;8.372;2023-06-10T12:13:46;3.13;;;2.83;;
14994;SDS011;7593;49.006;8.372;2023-06-10T12:16:14;3.15;;;2.95;;
14994;SDS011;7593;49.006;8.372;2023-06-10T12:18:43;3.20;;;3.00;;
14994;SDS011;7593;49.006;8.372;2023-06-10T12:21:17;3.35;;;3.05;;
14994;SDS011;7593;49.006;8.372;2023-06-10T12:24:04;3.08;;;2.78;;
14994;SDS011;7593;49.006;8.372;2023-06-10T12:26:35;2.97;;;2.75;;
14994;SDS011;7593;49.006;8.372;2023-06-10T12:29:22;2.70;;;2.47;;
14994;SDS011;7593;49.006;8.372;2023-06-10T12:31:54;2.90;;;2.60;;
14994;SDS011;7593;49.006;8.372;2023-06-10T12:34:27;3.67;;;2.60;;
14994;SDS011;7593;49.006;8.372;2023-06-10T12:36:55;3.75;;;2.88;;
14994;SDS011;7593;49.006;8.372;2023-06-10T12:39:22;2.70;;;2.50;;
14994;SDS011;7593;49.006;8.372;2023-06-10T12:41:49;3.15;;;2.65;;
14994;SDS011;7593;49.006;8.372;2023-06-10T12:44:17;3.50;;;2.60;;
14994;SDS011;7593;49.006;8.372;2023-06-10T12:46:45;2.83;;;2.53;;
14994;SDS011;7593;49.006;8.372;2023-06-10T12:49:18;5.55;;;2.58;;
14994;SDS011;7593;49.006;8.372;2023-06-10T12:51:46;2.90;;;2.40;;
14994;SDS011;7593;49.006;8.372;2023-06-10T12:54:13;2.50;;;2.30;;
14994;SDS011;7593;49.006;8.372;2023-06-10T12:56:40;2.83;;;2.50;;
14994;SDS011;7593;49.006;8.372;2023-06-10T12:59:07;2.60;;;2.40;;
14994;SDS011;7593;49.006;8.372;2023-06-10T13:01:33;2.60;;;2.40;;
14994;SDS011;7593;49.006;8.372;2023-06-10T13:04:02;2.58;;;2.38;;
14994;SDS011;7593;49.006;8.372;2023-06-10T13:06:31;2.67;;;2.47;;
14994;SDS011;7593;49.006;8.372;2023-06-10T13:09:01;4.45;;;2.58;;
14994;SDS011;7593;49.006;8.372;2023-06-10T13:11:28;4.22;;;2.50;;
14994;SDS011;7593;49.006;8.372;2023-06-10T13:13:55;2.88;;;2.38;;
14994;SDS011;7593;49.006;8.372;2023-06-10T13:16:22;2.78;;;2.40;;
14994;SDS011;7593;49.006;8.372;2023-06-10T13:18:48;3.10;;;2.47;;
14994;SDS011;7593;49.006;8.372;2023-06-10T13:21:17;2.72;;;2.53;;
14994;SDS011;7593;49.006;8.372;2023-06-10T13:23:44;2.63;;;2.33;;
14994;SDS011;7593;49.006;8.372;2023-06-10T13:26:12;3.65;;;2.60;;
14994;SDS011;7593;49.006;8.372;2023-06-10T13:28:39;3.45;;;2.25;;
14994;SDS011;7593;49.006;8.372;2023-06-10T13:31:06;2.42;;;2.20;;
14994;SDS011;7593;49.006;8.372;2023-06-10T13:33:33;2.33;;;2.13;;
14994;SDS011;7593;49.006;8.372;2023-06-10T13:35:59;3.08;;;2.33;;
14994;SDS011;7593;49.006;8.372;2023-06-10T13:38:27;2.40;;;2.20;;
14994;SDS011;7593;49.006;8.372;2023-06-10T13:40:54;2.50;;;2.30;;
14994;SDS011;7593;49.006;8.372;2023-06-10T13:43:21;3.20;;;2.60;;
14994;SDS011;7593;49.006;8.372;2023-06-10T13:45:48;2.60;;;2.40;;
14994;SDS011;7593;49.006;8.372;2023-06-10T13:48:14;2.80;;;2.50;;
14994;SDS011;7593;49.006;8.372;2023-06-10T13:50:41;4.93;;;2.50;;
14994;SDS011;7593;49.006;8.372;2023-06-10T13:53:10;3.85;;;2.50;;
14994;SDS011;7593;49.006;8.372;2023-06-10T13:55:38;3.15;;;2.55;;
14994;SDS011;7593;49.006;8.372;2023-06-10T13:58:05;5.80;;;2.42;;
14994;SDS011;7593;49.006;8.372;2023-06-10T14:00:32;2.83;;;2.63;;
14994;SDS011;7593;49.006;8.372;2023-06-10T14:02:58;2.83;;;2.50;;
14994;SDS011;7593;49.006;8.372;2023-06-10T14:05:25;4.18;;;2.50;;
14994;SDS011;7593;49.006;8.372;2023-06-10T14:07:52;2.72;;;2.53;;
14994;SDS011;7593;49.006;8.372;2023-06-10T14:10:18;3.67;;;2.65;;
14994;SDS011;7593;49.006;8.372;2023-06-10T14:12:47;3.53;;;2.65;;
14994;SDS011;7593;49.006;8.372;2023-06-10T14:15:14;2.70;;;2.47;;
14994;SDS011;7593;49.006;8.372;2023-06-10T14:17:40;3.60;;;2.42;;
14994;SDS011;7593;49.006;8.372;2023-06-10T14:20:08;2.80;;;2.60;;
14994;SDS011;7593;49.006;8.372;2023-06-10T14:22:35;3.08;;;2.30;;
14994;SDS011;7593;49.006;8.372;2023-06-10T14:25:02;2.85;;;2.60;;
14994;SDS011;7593;49.006;8.372;2023-06-10T14:27:29;4.10;;;2.40;;
14994;SDS011;7593;49.006;8.372;2023-06-10T14:29:57;4.10;;;2.70;;
14994;SDS011;7593;49.006;8.372;2023-06-10T14:32:24;3.45;;;2.58;;
14994;SDS011;7593;49.006;8.372;2023-06-10T14:34:50;2.70;;;2.50;;
14994;SDS011;7593;49.006;8.372;2023-06-10T14:37:17;2.92;;;2.40;;
14994;SDS011;7593;49.006;8.372;2023-06-10T14:39:44;3.55;;;2.65;;
14994;SDS011;7593;49.006;8.372;2023-06-10T14:42:11;5.72;;;2.70;;
14994;SDS011;7593;49.006;8.372;2023-06-10T14:44:37;3.13;;;2.80;;
14994;SDS011;7593;49.006;8.372;2023-06-10T14:47:06;3.33;;;2.70;;
14994;SDS011;7593;49.006;8.372;2023-06-10T14:49:32;2.88;;;2.67;;
14994;SDS011;7593;49.006;8.372;2023-06-10T14:51:59;3.17;;;2.70;;
14994;SDS011;7593;49.006;8.372;2023-06-10T14:54:26;2.35;;;2.25;;
14994;SDS011;7593;49.006;8.372;2023-06-10T14:56:52;3.45;;;2.47;;
14994;SDS011;7593;49.006;8.372;2023-06-10T14:59:20;3.25;;;2.75;;
14994;SDS011;7593;49.006;8.372;2023-06-10T15:01:46;3.28;;;2.20;;
14994;SDS011;7593;49.006;8.372;2023-06-10T15:04:14;2.70;;;2.50;;